Terminal Aerodrome Forecast
Issued by NWS

Home | Current Version | Previous Version | Text Only | Print | Product List | Glossary On
Versions: 1 2 3 4 5 6 7 8 9 10 11 12 13 14 15
000
FTUS43 KTOP 170524
TAFFOE
TAF
KFOE 170524Z 1706/1806 16006KT P6SM SCT070 OVC200
     FM170900 18008KT P6SM VCSH OVC035
     FM171200 19007KT P6SM VCSH OVC018
     FM171800 26005KT P6SM BKN030=

USA.gov is the U.S. government's official web portal to all federal, state and local government web resources and services.